Time;durP1;ratioP1;P1;durP2;ratioP2;P2;SDS_P1;SDS_P2;PMS_P1;PMS_P2;Temp;Humidity;BMP_temperature;BMP_pressure;BME280_temperature;BME280_humidity;BME280_pressure;Samples;Min_cycle;Max_cycle;Signal;HPM_P1;HPM_P2
2023/07/27 00:00:22;;;;;;;;;;;;;;;;;;7375819;19;19925;-73
2023/07/27 00:02:47;;;;;;;;;;;;;;;;;;7374960;19;19921;-73
2023/07/27 00:05:15;;;;;;;;;;;;;;;;;;7375278;19;19971;-73
2023/07/27 00:07:41;;;;;;;;;;;;;;;;;;7396079;19;19923;-73
2023/07/27 00:10:06;;;;;;;;;;;;;;;;;;7371168;19;19938;-73
2023/07/27 00:12:31;;;;;;;;;;;;;;;;;;7380014;19;19915;-73
2023/07/27 00:14:56;;;;;;;;;;;;;;;;;;7379110;19;19919;-73
2023/07/27 00:17:22;;;;;;;;;;;;;;;;;;7378565;19;19919;-73
2023/07/27 00:19:47;;;;;;;;;;;;;;;;;;7395666;19;20289;-73
2023/07/27 00:22:12;;;;;;;;;;;;;;;;;;7373075;19;20120;-73
2023/07/27 00:24:37;;;;;;;;;;;;;;;;;;7373804;19;19947;-73
2023/07/27 00:27:03;;;;;;;;;;;;;;;;;;7374036;19;19915;-73
2023/07/27 00:29:28;;;;;;;;;;;;;;;;;;7373959;19;20003;-73
2023/07/27 00:31:54;;;;;;;;;;;;;;;;;;7395832;19;20274;-74
2023/07/27 00:34:19;;;;;;;;;;;;;;;;;;7371940;19;19943;-73
2023/07/27 00:36:44;;;;;;;;;;;;;;;;;;7373678;19;19922;-73
2023/07/27 00:39:11;;;;;;;;;;;;;;;;;;7373908;19;19953;-73
2023/07/27 00:41:39;;;;;;;;;;;;;;;;;;7372890;19;19926;-74
2023/07/27 00:44:04;;;;;;;;;;;;;;;;;;7373954;19;19923;-74
2023/07/27 00:46:29;;;;;;;;;;;;;;;;;;7395978;19;19911;-73
2023/07/27 00:48:55;;;;;;;;;;;;;;;;;;7373551;19;19919;-74
2023/07/27 00:51:20;;;;;;;;;;;;;;;;;;7374263;19;20315;-73
2023/07/27 00:53:46;;;;;;;;;;;;;;;;;;7374791;19;19931;-74
2023/07/27 00:56:11;;;;;;;;;;;;;;;;;;7378226;19;19974;-73
2023/07/27 00:58:37;;;;;;;;;;;;;;;;;;7398634;19;19956;-73
2023/07/27 01:01:04;;;;;;;;;;;;;;;;;;7375462;19;19923;-74
2023/07/27 01:03:29;;;;;;;;;;;;;;;;;;7382384;19;19922;-73
2023/07/27 01:05:55;;;;;;;;;;;;;;;;;;7389282;19;19918;-73
2023/07/27 01:08:20;;;;;;;;;;;;;;;;;;7385925;19;19950;-73
2023/07/27 01:10:49;;;;;;;;;;;;;;;;;;7408918;19;19918;-73
2023/07/27 01:13:20;;;;;;;;;;;;;;;;;;7383556;19;19939;-73
2023/07/27 01:15:51;;;;;;;;;;;;;;;;;;7374939;19;20744;-72
2023/07/27 01:18:22;;;;;;;;;;;;;;;;;;7373299;19;19919;-73
2023/07/27 01:21:07;;;;;;;;;;;;;;;;;;7372403;19;19957;-74
2023/07/27 01:23:52;;;;;;;;;;;;;;;;;;7373020;19;19939;-74
2023/07/27 01:26:20;;;;;;;;;;;;;;;;;;7370868;19;19912;-74
2023/07/27 01:29:04;;;;;;;;;;;;;;;;;;7391511;19;19943;-74
2023/07/27 01:31:41;;;;;;;;;;;;;;;;;;7371621;19;19927;-74
2023/07/27 01:34:09;;;;;;;;;;;;;;;;;;7371384;19;19991;-74
2023/07/27 01:36:37;;;;;;;;;;;;;;;;;;7373470;19;19963;-72
2023/07/27 01:39:04;;;;;;;;;;;;;;;;;;7375118;19;19915;-74
2023/07/27 01:41:31;;;;;;;;;;;;;;;;;;7371140;19;19918;-73
2023/07/27 01:43:57;;;;;;;;;;;;;;;;;;7388988;19;19914;-74
2023/07/27 01:46:23;;;;;;;;;;;;;;;;;;7385189;19;19970;-73
2023/07/27 01:48:50;;;;;;;;;;;;;;;;;;7371181;19;19929;-73
2023/07/27 01:51:15;;;;;;;;;;;;;;;;;;7370597;19;19958;-73
2023/07/27 01:53:42;;;;;;;;;;;;;;;;;;7371133;19;20603;-73
2023/07/27 01:56:07;;;;;;;;;;;;;;;;;;7372020;19;19919;-74
2023/07/27 01:58:36;;;;;;;;;;;;;;;;;;7392263;19;19925;-74
2023/07/27 02:01:02;;;;;;;;;;;;;;;;;;7366596;19;19918;-73
2023/07/27 02:03:28;;;;;;;;;;;;;;;;;;7372221;19;20008;-73
2023/07/27 02:05:53;;;;;;;;;;;;;;;;;;7370692;19;19922;-73
2023/07/27 02:08:18;;;;;;;;;;;;;;;;;;7369296;19;19915;-72
2023/07/27 02:10:46;;;;;;;;;;;;;;;;;;7390711;19;19921;-73
2023/07/27 02:13:19;;;;;;;;;;;;;;;;;;7368768;19;20305;-73
2023/07/27 02:15:48;;;;;;;;;;;;;;;;;;7369960;19;19978;-73
2023/07/27 02:18:18;;;;;;;;;;;;;;;;;;7370081;19;20306;-73
2023/07/27 02:20:43;;;;;;;;;;;;;;;;;;7369155;19;19951;-73
2023/07/27 02:23:10;;;;;;;;;;;;;;;;;;7367544;19;19914;-73
2023/07/27 02:25:35;;;;;;;;;;;;;;;;;;7392356;19;19925;-73
2023/07/27 02:28:00;;;;;;;;;;;;;;;;;;7367254;19;19986;-73
2023/07/27 02:30:26;;;;;;;;;;;;;;;;;;7369932;19;19978;-73
2023/07/27 02:32:51;;;;;;;;;;;;;;;;;;7370272;19;19960;-72
2023/07/27 02:35:16;;;;;;;;;;;;;;;;;;7368984;19;19912;-73
2023/07/27 02:37:41;;;;;;;;;;;;;;;;;;7390812;19;19914;-73
2023/07/27 02:40:07;;;;;;;;;;;;;;;;;;7368987;19;19921;-73
2023/07/27 02:42:32;;;;;;;;;;;;;;;;;;7368495;19;19931;-73
2023/07/27 02:44:57;;;;;;;;;;;;;;;;;;7369565;19;19914;-73
2023/07/27 02:47:22;;;;;;;;;;;;;;;;;;7370047;19;19935;-73
2023/07/27 02:49:48;;;;;;;;;;;;;;;;;;7393197;19;19926;-73
2023/07/27 02:52:13;;;;;;;;;;;;;;;;;;7370096;19;20458;-72
2023/07/27 02:54:38;;;;;;;;;;;;;;;;;;7370601;19;19982;-73
2023/07/27 02:57:04;;;;;;;;;;;;;;;;;;7371635;19;19915;-73
2023/07/27 02:59:29;;;;;;;;;;;;;;;;;;7373402;19;19919;-73
2023/07/27 03:01:54;;;;;;;;;;;;;;;;;;7392934;19;19926;-72
2023/07/27 03:04:20;;;;;;;;;;;;;;;;;;7370129;19;19922;-72
2023/07/27 03:06:45;;;;;;;;;;;;;;;;;;7368722;19;20377;-72
2023/07/27 03:09:10;;;;;;;;;;;;;;;;;;7368759;19;19950;-72
2023/07/27 03:11:36;;;;;;;;;;;;;;;;;;7368791;19;19923;-73
2023/07/27 03:14:01;;;;;;;;;;;;;;;;;;7368960;19;19921;-73
2023/07/27 03:16:26;;;;;;;;;;;;;;;;;;7390376;19;19918;-72
2023/07/27 03:18:52;;;;;;;;;;;;;;;;;;7368535;19;19922;-72
2023/07/27 03:21:17;;;;;;;;;;;;;;;;;;7367058;19;19919;-72
2023/07/27 03:23:42;;;;;;;;;;;;;;;;;;7368602;19;20331;-72
2023/07/27 03:26:13;;;;;;;;;;;;;;;;;;7368576;19;19911;-72
2023/07/27 03:28:39;;;;;;;;;;;;;;;;;;7389267;19;19970;-73
2023/07/27 03:31:20;;;;;;;;;;;;;;;;;;7367757;19;19922;-72
2023/07/27 03:33:46;;;;;;;;;;;;;;;;;;7368088;19;20286;-72
2023/07/27 03:36:12;;;;;;;;;;;;;;;;;;7367357;19;19951;-72
2023/07/27 03:38:38;;;;;;;;;;;;;;;;;;7367589;19;20577;-72
2023/07/27 03:41:03;;;;;;;;;;;;;;;;;;7368855;19;19919;-72
2023/07/27 03:43:28;;;;;;;;;;;;;;;;;;7391464;19;20514;-72
2023/07/27 03:45:53;;;;;;;;;;;;;;;;;;7368245;19;19923;-73
2023/07/27 03:48:19;;;;;;;;;;;;;;;;;;7368122;19;19919;-74
2023/07/27 03:50:44;;;;;;;;;;;;;;;;;;7367230;19;19922;-71
2023/07/27 03:53:09;;;;;;;;;;;;;;;;;;7367625;19;19919;-74
2023/07/27 03:55:34;;;;;;;;;;;;;;;;;;7389565;19;19923;-73
2023/07/27 03:58:00;;;;;;;;;;;;;;;;;;7365139;19;19918;-73
2023/07/27 04:00:25;;;;;;;;;;;;;;;;;;7362348;19;19966;-73
2023/07/27 04:02:50;;;;;;;;;;;;;;;;;;7365609;19;19922;-73
2023/07/27 04:05:15;;;;;;;;;;;;;;;;;;7365734;19;19932;-73
2023/07/27 04:07:41;;;;;;;;;;;;;;;;;;7388035;19;19911;-73
2023/07/27 04:10:06;;;;;;;;;;;;;;;;;;7365821;19;19922;-73
2023/07/27 04:12:31;;;;;;;;;;;;;;;;;;7365690;19;19922;-73
2023/07/27 04:14:56;;;;;;;;;;;;;;;;;;7364469;19;19919;-72
2023/07/27 04:17:22;;;;;;;;;;;;;;;;;;7366170;19;19935;-73
2023/07/27 04:19:47;;;;;;;;;;;;;;;;;;7389781;19;20334;-73
2023/07/27 04:22:12;;;;;;;;;;;;;;;;;;7367073;19;20559;-73
2023/07/27 04:24:38;;;;;;;;;;;;;;;;;;7366672;19;20310;-73
2023/07/27 04:27:04;;;;;;;;;;;;;;;;;;7368160;19;20370;-73
2023/07/27 04:29:29;;;;;;;;;;;;;;;;;;7366994;19;19943;-73
2023/07/27 04:31:54;;;;;;;;;;;;;;;;;;7389225;19;19925;-73
2023/07/27 04:34:19;;;;;;;;;;;;;;;;;;7373073;19;19915;-73
2023/07/27 04:36:47;;;;;;;;;;;;;;;;;;7373818;19;19947;-73
2023/07/27 04:39:12;;;;;;;;;;;;;;;;;;7374078;19;19926;-73
2023/07/27 04:41:37;;;;;;;;;;;;;;;;;;7371645;19;19928;-73
2023/07/27 04:44:03;;;;;;;;;;;;;;;;;;7373771;19;19910;-73
2023/07/27 04:46:28;;;;;;;;;;;;;;;;;;7396424;19;19925;-74
2023/07/27 04:48:53;;;;;;;;;;;;;;;;;;7369503;19;19924;-74
2023/07/27 04:51:18;;;;;;;;;;;;;;;;;;7373511;19;19922;-74
2023/07/27 04:53:44;;;;;;;;;;;;;;;;;;7374571;19;19919;-73
2023/07/27 04:56:09;;;;;;;;;;;;;;;;;;7374577;19;19918;-70
2023/07/27 04:58:34;;;;;;;;;;;;;;;;;;7393107;19;19926;-69
2023/07/27 05:01:00;;;;;;;;;;;;;;;;;;7371162;19;20002;-69
2023/07/27 05:03:25;;;;;;;;;;;;;;;;;;7373984;19;19926;-73
2023/07/27 05:05:51;;;;;;;;;;;;;;;;;;7371651;19;19919;-73
2023/07/27 05:08:16;;;;;;;;;;;;;;;;;;7368040;19;20064;-74
2023/07/27 05:10:42;;;;;;;;;;;;;;;;;;7391351;19;19919;-73
2023/07/27 05:13:07;;;;;;;;;;;;;;;;;;7368939;19;19915;-73
2023/07/27 05:15:32;;;;;;;;;;;;;;;;;;7369610;19;19921;-73
2023/07/27 05:17:58;;;;;;;;;;;;;;;;;;7370735;19;20625;-73
2023/07/27 05:20:23;;;;;;;;;;;;;;;;;;7370892;19;20341;-73
2023/07/27 05:22:48;;;;;;;;;;;;;;;;;;7396325;19;19939;-74
2023/07/27 05:25:14;;;;;;;;;;;;;;;;;;7372176;19;19923;-73
2023/07/27 05:27:39;;;;;;;;;;;;;;;;;;7373070;19;19929;-73
2023/07/27 05:30:04;;;;;;;;;;;;;;;;;;7373749;19;19918;-73
2023/07/27 05:32:30;;;;;;;;;;;;;;;;;;7374029;19;19918;-73
2023/07/27 05:34:55;;;;;;;;;;;;;;;;;;7393789;19;19919;-73
2023/07/27 05:37:20;;;;;;;;;;;;;;;;;;7372720;19;19993;-73
2023/07/27 05:39:46;;;;;;;;;;;;;;;;;;7372849;19;20262;-74
2023/07/27 05:42:11;;;;;;;;;;;;;;;;;;7374669;19;19919;-74
2023/07/27 05:44:36;;;;;;;;;;;;;;;;;;7374468;19;19925;-74
2023/07/27 05:47:02;;;;;;;;;;;;;;;;;;7376919;19;19911;-74
2023/07/27 05:49:28;;;;;;;;;;;;;;;;;;7395027;19;19995;-73
2023/07/27 05:51:53;;;;;;;;;;;;;;;;;;7371272;19;19920;-73
2023/07/27 05:54:18;;;;;;;;;;;;;;;;;;7371725;19;19918;-73
2023/07/27 05:56:43;;;;;;;;;;;;;;;;;;7371287;19;19914;-73
2023/07/27 05:59:09;;;;;;;;;;;;;;;;;;7372869;19;20278;-74
2023/07/27 06:01:34;;;;;;;;;;;;;;;;;;7392731;19;19914;-74
2023/07/27 06:04:02;;;;;;;;;;;;;;;;;;7371389;19;19914;-73
2023/07/27 06:06:27;;;;;;;;;;;;;;;;;;7373118;19;20325;-73
2023/07/27 06:08:53;;;;;;;;;;;;;;;;;;7366516;19;19953;-74
2023/07/27 06:11:19;;;;;;;;;;;;;;;;;;7371023;19;20707;-74
2023/07/27 06:13:44;;;;;;;;;;;;;;;;;;7394169;19;19922;-74
2023/07/27 06:16:10;;;;;;;;;;;;;;;;;;7372121;19;19915;-74
2023/07/27 06:18:37;;;;;;;;;;;;;;;;;;7371480;19;20572;-75
2023/07/27 06:21:03;;;;;;;;;;;;;;;;;;7370290;19;19911;-74
2023/07/27 06:23:28;;;;;;;;;;;;;;;;;;7371500;19;19926;-75
2023/07/27 06:25:53;;;;;;;;;;;;;;;;;;7391270;19;19917;-74
2023/07/27 06:28:19;;;;;;;;;;;;;;;;;;7368798;19;20261;-73
2023/07/27 06:30:45;;;;;;;;;;;;;;;;;;7369808;19;19929;-74
2023/07/27 06:33:11;;;;;;;;;;;;;;;;;;7370228;19;19915;-73
2023/07/27 06:35:36;;;;;;;;;;;;;;;;;;7367847;19;19914;-74
2023/07/27 06:38:01;;;;;;;;;;;;;;;;;;7369636;19;19974;-73
2023/07/27 06:40:26;;;;;;;;;;;;;;;;;;7390950;19;19915;-72
2023/07/27 06:42:51;;;;;;;;;;;;;;;;;;7368830;19;19918;-72
2023/07/27 06:45:18;;;;;;;;;;;;;;;;;;7369016;19;20341;-72
2023/07/27 06:47:43;;;;;;;;;;;;;;;;;;7370842;19;19914;-71
2023/07/27 06:50:09;;;;;;;;;;;;;;;;;;7370830;19;19914;-72
2023/07/27 06:52:34;;;;;;;;;;;;;;;;;;7392401;19;20394;-72
2023/07/27 06:54:59;;;;;;;;;;;;;;;;;;7375040;19;19927;-72
2023/07/27 06:57:25;;;;;;;;;;;;;;;;;;7373030;19;19915;-73
2023/07/27 06:59:50;;;;;;;;;;;;;;;;;;7375458;19;20652;-72
2023/07/27 07:02:16;;;;;;;;;;;;;;;;;;7375298;19;19932;-73
2023/07/27 07:04:41;;;;;;;;;;;;;;;;;;7396091;19;20259;-72
2023/07/27 07:07:07;;;;;;;;;;;;;;;;;;7372580;19;20540;-73
2023/07/27 07:09:35;;;;;;;;;;;;;;;;;;7372230;19;20341;-73
2023/07/27 07:12:00;;;;;;;;;;;;;;;;;;7374818;19;19922;-72
2023/07/27 07:14:26;;;;;;;;;;;;;;;;;;7374147;19;19951;-73
2023/07/27 07:16:51;;;;;;;;;;;;;;;;;;7391336;19;19931;-75
2023/07/27 07:19:16;;;;;;;;;;;;;;;;;;7370604;19;19918;-73
2023/07/27 07:21:41;;;;;;;;;;;;;;;;;;7369754;19;19945;-74
2023/07/27 07:24:06;;;;;;;;;;;;;;;;;;7370181;19;19968;-75
2023/07/27 07:26:32;;;;;;;;;;;;;;;;;;7370007;19;19919;-75
2023/07/27 07:28:57;;;;;;;;;;;;;;;;;;7379223;19;20605;-76
2023/07/27 07:31:22;;;;;;;;;;;;;;;;;;7383277;19;20753;-75
2023/07/27 07:33:48;;;;;;;;;;;;;;;;;;7368559;19;19978;-74
2023/07/27 07:36:13;;;;;;;;;;;;;;;;;;7368091;19;19922;-75
2023/07/27 07:38:39;;;;;;;;;;;;;;;;;;7370089;19;19918;-76
2023/07/27 07:41:04;;;;;;;;;;;;;;;;;;7368840;19;19918;-77
2023/07/27 07:43:29;;;;;;;;;;;;;;;;;;7390714;19;20490;-74
2023/07/27 07:45:54;;;;;;;;;;;;;;;;;;7368844;19;19926;-75
2023/07/27 07:48:20;;;;;;;;;;;;;;;;;;7368895;19;19926;-75
2023/07/27 07:50:45;;;;;;;;;;;;;;;;;;7382210;19;19926;-74
2023/07/27 07:53:11;;;;;;;;;;;;;;;;;;7369391;19;19926;-75
2023/07/27 07:55:36;;;;;;;;;;;;;;;;;;7390887;19;19959;-74
2023/07/27 07:58:02;;;;;;;;;;;;;;;;;;7366782;19;20349;-74
2023/07/27 08:00:27;;;;;;;;;;;;;;;;;;7367681;19;19926;-75
2023/07/27 08:02:52;;;;;;;;;;;;;;;;;;7369287;19;20793;-73
2023/07/27 08:05:17;;;;;;;;;;;;;;;;;;7369478;19;19922;-73
2023/07/27 08:07:43;;;;;;;;;;;;;;;;;;7390557;19;19914;-74
2023/07/27 08:10:09;;;;;;;;;;;;;;;;;;7375532;19;19926;-71
2023/07/27 08:12:34;;;;;;;;;;;;;;;;;;7375539;19;20322;-70
2023/07/27 08:15:00;;;;;;;;;;;;;;;;;;7376166;19;19927;-71
2023/07/27 08:17:27;;;;;;;;;;;;;;;;;;7374269;19;19922;-71
2023/07/27 08:19:53;;;;;;;;;;;;;;;;;;7396456;19;19923;-71
2023/07/27 08:22:18;;;;;;;;;;;;;;;;;;7374142;19;20361;-70
2023/07/27 08:24:43;;;;;;;;;;;;;;;;;;7374535;19;20395;-71
2023/07/27 08:27:09;;;;;;;;;;;;;;;;;;7374634;19;19931;-71
2023/07/27 08:29:34;;;;;;;;;;;;;;;;;;7374750;19;20394;-71
2023/07/27 08:31:59;;;;;;;;;;;;;;;;;;7374294;19;20002;-70
2023/07/27 08:34:24;;;;;;;;;;;;;;;;;;7395139;19;19910;-70
2023/07/27 08:36:51;;;;;;;;;;;;;;;;;;7374154;19;19929;-71
2023/07/27 08:39:17;;;;;;;;;;;;;;;;;;7377031;19;19993;-70
2023/07/27 08:41:42;;;;;;;;;;;;;;;;;;7377011;19;19922;-69
2023/07/27 08:44:08;;;;;;;;;;;;;;;;;;7376778;19;19910;-71
2023/07/27 08:46:33;;;;;;;;;;;;;;;;;;7396821;19;19926;-71
2023/07/27 08:49:01;;;;;;;;;;;;;;;;;;7372985;19;19926;-69
2023/07/27 08:51:27;;;;;;;;;;;;;;;;;;7372998;19;19919;-70
2023/07/27 08:53:53;;;;;;;;;;;;;;;;;;7373265;19;19919;-70
2023/07/27 08:56:18;;;;;;;;;;;;;;;;;;7374438;19;19923;-69
2023/07/27 08:58:43;;;;;;;;;;;;;;;;;;7392855;19;19915;-69
2023/07/27 09:01:09;;;;;;;;;;;;;;;;;;7371392;19;19918;-70
2023/07/27 09:03:34;;;;;;;;;;;;;;;;;;7373368;19;19935;-70
2023/07/27 09:06:00;;;;;;;;;;;;;;;;;;7374572;19;20320;-70
2023/07/27 09:08:29;;;;;;;;;;;;;;;;;;7372319;19;19919;-70
2023/07/27 09:10:55;;;;;;;;;;;;;;;;;;7394832;19;19907;-70
2023/07/27 09:13:20;;;;;;;;;;;;;;;;;;7372212;19;19911;-70
2023/07/27 09:15:45;;;;;;;;;;;;;;;;;;7372726;19;19925;-70
2023/07/27 09:18:11;;;;;;;;;;;;;;;;;;7374076;19;19931;-71
2023/07/27 09:20:38;;;;;;;;;;;;;;;;;;7370854;19;19922;-70
2023/07/27 09:23:04;;;;;;;;;;;;;;;;;;7374506;19;19915;-71
2023/07/27 09:25:29;;;;;;;;;;;;;;;;;;7395187;19;19919;-70
2023/07/27 09:27:55;;;;;;;;;;;;;;;;;;7372057;19;20364;-71
2023/07/27 09:30:21;;;;;;;;;;;;;;;;;;7373044;19;20338;-70
2023/07/27 09:32:47;;;;;;;;;;;;;;;;;;7373311;19;20019;-71
2023/07/27 09:35:13;;;;;;;;;;;;;;;;;;7372883;19;19922;-71
2023/07/27 09:37:42;;;;;;;;;;;;;;;;;;7394513;19;20379;-71
2023/07/27 09:40:08;;;;;;;;;;;;;;;;;;7372075;19;19918;-71
2023/07/27 09:42:33;;;;;;;;;;;;;;;;;;7371839;19;19990;-70
2023/07/27 09:44:59;;;;;;;;;;;;;;;;;;7373111;19;19957;-71
2023/07/27 09:47:29;;;;;;;;;;;;;;;;;;7372244;19;19954;-71
2023/07/27 09:49:55;;;;;;;;;;;;;;;;;;7393837;19;19914;-72
2023/07/27 09:52:22;;;;;;;;;;;;;;;;;;7371399;19;19923;-72
2023/07/27 09:54:48;;;;;;;;;;;;;;;;;;7372565;19;19939;-72
2023/07/27 09:57:13;;;;;;;;;;;;;;;;;;7372055;19;19935;-72
2023/07/27 09:59:39;;;;;;;;;;;;;;;;;;7372955;19;20365;-72
2023/07/27 10:02:04;;;;;;;;;;;;;;;;;;7369340;19;19918;-73
2023/07/27 10:04:30;;;;;;;;;;;;;;;;;;7392561;19;20278;-72
2023/07/27 10:06:55;;;;;;;;;;;;;;;;;;7369627;19;19962;-72
2023/07/27 10:09:22;;;;;;;;;;;;;;;;;;7371122;19;20344;-72
2023/07/27 10:11:53;;;;;;;;;;;;;;;;;;7370113;19;20363;-71
2023/07/27 10:15:25;;;;;;;6.88;3.60;;;;;;;;;;7403693;19;20370;-71
2023/07/27 10:17:54;;;;;;;5.70;3.78;;;;;;;;;;7400599;19;20018;-71
2023/07/27 10:20:23;;;;;;;7.72;3.95;;;;;;;;;;7403693;19;20607;-71
2023/07/27 10:23:12;;;;;;;6.00;3.72;;;;;;;;;;7424451;19;20002;-71
2023/07/27 10:25:55;;;;;;;5.70;3.78;;;;;;;;;;7403245;19;20040;-72
2023/07/27 10:28:37;;;;;;;7.05;4.22;;;;;;;;;;7401693;19;20026;-72
2023/07/27 10:31:25;;;;;;;6.95;4.00;;;;;;;;;;7404494;19;20017;-72
2023/07/27 10:34:02;;;;;;;8.75;4.28;;;;;;;;;;7402247;19;20010;-72
2023/07/27 10:36:46;;;;;;;8.05;4.15;;;;;;;;;;7407068;19;20003;-72
2023/07/27 10:39:15;;;;;;;9.25;4.47;;;;;;;;;;7416678;19;20018;-73
2023/07/27 10:41:59;;;;;;;8.02;4.28;;;;;;;;;;7412800;19;20011;-71
2023/07/27 10:44:26;;;;;;;8.98;4.47;;;;;;;;;;7407192;19;20042;-72
2023/07/27 10:46:54;;;;;;;9.68;4.75;;;;;;;;;;7430725;19;20005;-73
2023/07/27 10:49:20;;;;;;;9.48;4.90;;;;;;;;;;7409401;19;19999;-72
2023/07/27 10:51:46;;;;;;;6.75;4.35;;;;;;;;;;7405436;19;20016;-72
2023/07/27 10:54:12;;;;;;;9.68;4.40;;;;;;;;;;7406408;19;20002;-71
2023/07/27 10:56:38;;;;;;;7.47;4.32;;;;;;;;;;7410195;19;20070;-72
2023/07/27 10:59:04;;;;;;;7.88;4.55;;;;;;;;;;7424580;19;20013;-70
2023/07/27 11:01:32;;;;;;;8.98;4.65;;;;;;;;;;7444136;19;20007;-70
2023/07/27 11:03:58;;;;;;;7.07;4.50;;;;;;;;;;7422176;19;20014;-69
2023/07/27 11:06:27;;;;;;;8.70;4.53;;;;;;;;;;7420807;19;20006;-69
2023/07/27 11:08:52;;;;;;;7.35;4.22;;;;;;;;;;7418700;19;20002;-70
2023/07/27 11:11:19;;;;;;;6.47;4.38;;;;;;;;;;7420462;19;20038;-70
2023/07/27 11:13:45;;;;;;;7.75;4.57;;;;;;;;;;7443210;19;20010;-70
2023/07/27 11:16:13;;;;;;;10.23;4.68;;;;;;;;;;7420770;19;20002;-70
2023/07/27 11:18:40;;;;;;;7.15;4.30;;;;;;;;;;7417592;19;20476;-70
2023/07/27 11:21:08;;;;;;;7.82;4.10;;;;;;;;;;7414040;19;20341;-69
2023/07/27 11:23:42;;;;;;;7.28;4.50;;;;;;;;;;7416047;19;20006;-69
2023/07/27 11:26:07;;;;;;;7.78;3.83;;;;;;;;;;7398354;19;20000;-69
2023/07/27 11:28:34;;;;;;;7.30;4.13;;;;;;;;;;7411829;19;20003;-69
2023/07/27 11:30:59;;;;;;;8.63;4.03;;;;;;;;;;7387005;19;20006;-69
2023/07/27 11:33:32;;;;;;;7.32;3.72;;;;;;;;;;7389938;19;20103;-69
2023/07/27 11:35:58;;;;;;;7.15;4.00;;;;;;;;;;7388275;19;20504;-68
2023/07/27 11:38:23;;;;;;;9.48;4.10;;;;;;;;;;7389578;19;20013;-69
2023/07/27 11:40:49;;;;;;;8.50;4.03;;;;;;;;;;7413496;19;20013;-69
2023/07/27 11:43:14;;;;;;;8.35;4.00;;;;;;;;;;7398079;19;20003;-69
2023/07/27 11:45:40;;;;;;;8.23;4.65;;;;;;;;;;7383591;19;20034;-68
2023/07/27 11:48:05;;;;;;;6.78;3.97;;;;;;;;;;7382845;19;20311;-68
2023/07/27 11:50:36;;;;;;;6.60;4.35;;;;;;;;;;7380158;19;20018;-69
2023/07/27 11:53:03;;;;;;;7.43;4.45;;;;;;;;;;7382544;19;20003;-69
2023/07/27 11:55:33;;;;;;;8.68;5.10;;;;;;;;;;7404207;19;20009;-69
2023/07/27 11:57:59;;;;;;;6.93;4.65;;;;;;;;;;7379839;19;20031;-69
2023/07/27 12:00:24;;;;;;;7.78;4.90;;;;;;;;;;7382351;19;20062;-69
2023/07/27 12:02:50;;;;;;;12.05;5.45;;;;;;;;;;7381322;19;20010;-69
2023/07/27 12:05:19;;;;;;;9.45;5.88;;;;;;;;;;7381798;19;20036;-69
2023/07/27 12:07:45;;;;;;;8.70;5.80;;;;;;;;;;7401087;19;20011;-69
2023/07/27 12:10:12;;;;;;;9.43;5.22;;;;;;;;;;7380088;19;20010;-69
2023/07/27 12:12:51;;;;;;;9.90;5.93;;;;;;;;;;7382348;19;20002;-69
2023/07/27 12:15:23;;;;;;;8.82;5.22;;;;;;;;;;7381437;19;20010;-69
2023/07/27 12:17:55;;;;;;;10.43;6.05;;;;;;;;;;7378042;19;20006;-69
2023/07/27 12:20:20;;;;;;;10.15;5.82;;;;;;;;;;7377937;19;20010;-69
2023/07/27 12:22:45;;;;;;;7.53;5.63;;;;;;;;;;7402945;19;20002;-70
2023/07/27 12:25:10;;;;;;;11.38;5.68;;;;;;;;;;7377504;19;20014;-70
2023/07/27 12:27:36;;;;;;;8.93;5.55;;;;;;;;;;7376360;19;20003;-69
2023/07/27 12:30:02;;;;;;;8.68;5.45;;;;;;;;;;7377792;19;20023;-69
2023/07/27 12:32:27;;;;;;;9.75;5.68;;;;;;;;;;7378820;19;20003;-70
2023/07/27 12:34:52;;;;;;;8.82;5.53;;;;;;;;;;7398466;19;20022;-70
2023/07/27 12:37:18;;;;;;;9.25;5.45;;;;;;;;;;7375854;19;20416;-70
2023/07/27 12:39:43;;;;;;;8.60;5.45;;;;;;;;;;7382406;19;20001;-70
2023/07/27 12:42:08;;;;;;;8.73;5.20;;;;;;;;;;7386392;19;20014;-69
2023/07/27 12:44:34;;;;;;;8.98;5.68;;;;;;;;;;7378724;19;20062;-69
2023/07/27 12:46:59;;;;;;;8.13;5.18;;;;;;;;;;7378035;19;20002;-69
2023/07/27 12:49:24;;;;;;;11.60;5.47;;;;;;;;;;7397733;19;20002;-69
2023/07/27 12:51:51;;;;;;;13.18;5.43;;;;;;;;;;7372460;19;20085;-69
2023/07/27 12:54:16;;;;;;;8.93;5.55;;;;;;;;;;7375036;19;20002;-70
2023/07/27 12:56:42;;;;;;;14.07;5.70;;;;;;;;;;7376657;19;20013;-68
2023/07/27 12:59:07;;;;;;;7.75;4.93;;;;;;;;;;7377476;19;19998;-69
2023/07/27 13:01:32;;;;;;;8.60;5.30;;;;;;;;;;7397346;19;20006;-69
2023/07/27 13:03:58;;;;;;;7.75;5.47;;;;;;;;;;7376481;19;20017;-69
2023/07/27 13:06:23;;;;;;;8.82;5.45;;;;;;;;;;7374493;19;20003;-68
2023/07/27 13:08:48;;;;;;;8.75;5.38;;;;;;;;;;7374382;19;20019;-69
2023/07/27 13:11:14;;;;;;;9.43;5.20;;;;;;;;;;7374173;19;20006;-69
2023/07/27 13:13:39;;;;;;;9.15;5.30;;;;;;;;;;7395680;19;20002;-70
2023/07/27 13:16:04;;;;;;;8.35;5.38;;;;;;;;;;7373826;19;19995;-70
2023/07/27 13:18:30;;;;;;;9.05;5.30;;;;;;;;;;7372607;19;20010;-69
2023/07/27 13:20:55;;;;;;;9.18;5.68;;;;;;;;;;7372953;19;20456;-70
2023/07/27 13:23:20;;;;;;;8.27;5.18;;;;;;;;;;7373821;19;20013;-70
2023/07/27 13:25:46;;;;;;;9.63;4.88;;;;;;;;;;7395735;19;20024;-70
2023/07/27 13:28:11;;;;;;;8.95;5.13;;;;;;;;;;7372013;19;20014;-70
2023/07/27 13:30:37;;;;;;;7.85;5.07;;;;;;;;;;7373154;19;20011;-69
2023/07/27 13:33:02;;;;;;;8.98;5.10;;;;;;;;;;7371474;19;20011;-70
2023/07/27 13:35:28;;;;;;;8.27;4.80;;;;;;;;;;7375563;19;20441;-70
2023/07/27 13:37:53;;;;;;;8.55;4.63;;;;;;;;;;7392657;19;20006;-70
2023/07/27 13:40:18;;;;;;;6.75;4.00;;;;;;;;;;7371552;19;20006;-69
2023/07/27 13:42:44;;;;;;;7.03;3.60;;;;;;;;;;7370650;19;20011;-70
2023/07/27 13:45:09;;;;;;;6.13;3.28;;;;;;;;;;7372545;19;20007;-69
2023/07/27 13:47:35;;;;;;;5.88;2.92;;;;;;;;;;7372095;19;20437;-70
2023/07/27 13:50:00;;;;;;;4.68;2.50;;;;;;;;;;7372911;19;20068;-69
2023/07/27 13:52:26;;;;;;;4.07;2.42;;;;;;;;;;7393792;19;19998;-70
2023/07/27 13:54:52;;;;;;;4.90;2.58;;;;;;;;;;7370167;19;20006;-70
2023/07/27 13:57:17;;;;;;;3.83;2.50;;;;;;;;;;7368840;19;20007;-69
2023/07/27 13:59:42;;;;;;;4.20;2.45;;;;;;;;;;7373042;19;20372;-69
2023/07/27 14:02:07;;;;;;;5.28;2.70;;;;;;;;;;7371259;19;20022;-70
2023/07/27 14:04:33;;;;;;;4.45;2.40;;;;;;;;;;7391665;19;20345;-70
2023/07/27 14:06:58;;;;;;;5.05;2.25;;;;;;;;;;7367478;19;20401;-70
2023/07/27 14:09:25;;;;;;;5.38;2.50;;;;;;;;;;7366790;19;20079;-70
2023/07/27 14:11:50;;;;;;;3.78;2.28;;;;;;;;;;7368017;19;20102;-70
2023/07/27 14:14:16;;;;;;;6.18;2.63;;;;;;;;;;7365937;19;20319;-70
2023/07/27 14:16:41;;;;;;;5.32;2.40;;;;;;;;;;7387771;19;20014;-69
2023/07/27 14:19:06;;;;;;;4.95;2.58;;;;;;;;;;7368110;19;20011;-71
2023/07/27 14:21:32;;;;;;;6.07;2.60;;;;;;;;;;7366467;19;20019;-70
2023/07/27 14:23:57;;;;;;;4.78;2.90;;;;;;;;;;7367702;19;20496;-70
2023/07/27 14:26:23;;;;;;;4.75;2.47;;;;;;;;;;7367046;19;20064;-70
2023/07/27 14:28:48;;;;;;;6.70;2.75;;;;;;;;;;7391785;19;20019;-69
2023/07/27 14:31:13;;;;;;;4.38;2.50;;;;;;;;;;7378448;19;20007;-68
2023/07/27 14:33:39;;;;;;;4.28;2.55;;;;;;;;;;7376854;19;20046;-68
2023/07/27 14:36:04;;;;;;;5.40;2.78;;;;;;;;;;7377981;19;20672;-68
2023/07/27 14:38:30;;;;;;;4.55;2.63;;;;;;;;;;7378699;19;20006;-68
2023/07/27 14:40:55;;;;;;;4.55;2.65;;;;;;;;;;7398000;19;20023;-69
2023/07/27 14:43:20;;;;;;;4.07;2.50;;;;;;;;;;7375827;19;20078;-69
2023/07/27 14:45:46;;;;;;;5.00;2.92;;;;;;;;;;7377635;19;20030;-69
2023/07/27 14:48:11;;;;;;;5.40;2.80;;;;;;;;;;7381070;19;20006;-70
2023/07/27 14:50:36;;;;;;;4.05;2.50;;;;;;;;;;7379641;19;20030;-69
2023/07/27 14:53:01;;;;;;;4.53;2.60;;;;;;;;;;7381568;19;20006;-70
2023/07/27 14:55:27;;;;;;;5.55;2.67;;;;;;;;;;7403796;19;20508;-69
2023/07/27 14:57:52;;;;;;;4.38;2.55;;;;;;;;;;7377854;19;20560;-68
2023/07/27 15:00:18;;;;;;;3.80;2.45;;;;;;;;;;7373037;19;20265;-69
2023/07/27 15:02:43;;;;;;;6.15;2.70;;;;;;;;;;7385574;19;20102;-69
2023/07/27 15:05:09;;;;;;;12.30;2.90;;;;;;;;;;7385994;19;20105;-68
2023/07/27 15:07:34;;;;;;;4.18;2.38;;;;;;;;;;7405756;19;20029;-68
2023/07/27 15:09:59;;;;;;;6.88;2.60;;;;;;;;;;7385570;19;20394;-70
2023/07/27 15:12:25;;;;;;;6.65;2.70;;;;;;;;;;7385961;19;20702;-69
2023/07/27 15:14:50;;;;;;;4.40;2.38;;;;;;;;;;7383925;19;20398;-68
2023/07/27 15:17:15;;;;;;;5.13;2.85;;;;;;;;;;7384469;19;20031;-68
2023/07/27 15:19:41;;;;;;;4.13;2.40;;;;;;;;;;7407100;19;20138;-69
2023/07/27 15:22:06;;;;;;;3.97;2.70;;;;;;;;;;7381932;19;20010;-69
2023/07/27 15:24:32;;;;;;;4.20;2.53;;;;;;;;;;7385963;19;20042;-68
2023/07/27 15:26:57;;;;;;;5.57;2.30;;;;;;;;;;7384928;19;20587;-68
2023/07/27 15:29:23;;;;;;;5.05;2.75;;;;;;;;;;7387326;19;20011;-68
2023/07/27 15:31:48;;;;;;;6.35;2.70;;;;;;;;;;7403943;19;20003;-68
2023/07/27 15:34:15;;;;;;;5.55;2.70;;;;;;;;;;7363046;19;20014;-74
2023/07/27 15:36:40;;;;;;;5.25;2.78;;;;;;;;;;7368706;19;20014;-74
2023/07/27 15:39:06;;;;;;;4.63;2.78;;;;;;;;;;7370478;19;20074;-74
2023/07/27 15:41:31;;;;;;;5.95;3.20;;;;;;;;;;7368070;19;20010;-73
2023/07/27 15:43:56;;;;;;;7.03;3.30;;;;;;;;;;7387873;19;20413;-73
2023/07/27 15:46:22;;;;;;;4.53;2.58;;;;;;;;;;7388589;19;20014;-73
2023/07/27 15:48:47;;;;;;;5.22;2.92;;;;;;;;;;7367727;19;20003;-73
2023/07/27 15:51:12;;;;;;;6.55;2.70;;;;;;;;;;7362666;19;20070;-72